ダラス/フォートワース の空港の天気 - METARとTAF

ダラス・フォートワース国際空港 ( KDFW / DFW ) - アメリカ テキサス州ダラス & フォートワース
飛行場実況気象(Metar)
観測時間01/22 22:53 CST (01/23 04:53 UTC)
風向・風速西 4m/s
視程10km以上
天気現象
少しの雲 雲底高度 7620m
気温10℃
湿度32%
気圧1019.8hPa
METARKDFW 230453Z 28008KT 10SM FEW250 10/M06 A3012 RMK AO2 SLP198 T01001061 $
過去の天気等 Google飛行場航空写真 Wunderground天気予報

過去48時間のMETAR

飛行場予報(TAF)
発表時間: 1/22 23:21 CST (1/23 05:21 UTC)
予報対象時間: 23日0時 CST ~ 24日6時 CST
風向・風速北西 4m/s
視程10km以上
全天の4割程度の雲 雲底高度 6,100m
KDFW 230521Z 2306/2412 32008KT P6SM SCT200